Segui, Argentina
Current Conditions -  °F | °C
As of 10:00 AM on Monday 22 Dec 2014 (Local Time) from SAAR Reporting Station
Clear Clear  
Wind Chill: 66°   Ceiling: Unl
Heat Index: 66°   Visibility: 6mi
Dew Point: 50°   Wind: 13mph
Humidity: 56%   Direction: 180°S
Pressure: 30.12"   Gusts: NA
Location:  31.95°S, 60.13°W
Report Text: SAAR 221300Z 18011KT CAVOK 19/10 Q1020
Loading
Personal Weather Stations






























Interactive Weather Map New forecast layout! Learn more

10-Day Weather Forecast

Advertisements
Track Severe Weather on mobile